• Join FlightAware (Why Join?)
  • Login
  • US Flag 
12:23PM EDT


 

Airport Tracker/Info


-or-


 

Live Flight TrackerFlight Track Log ✈ AAL448 ✈ 07-May-2013 ✈ KLAX - KLAS

Flight Track Log - Related Links

Times and Time Zones

All times are in EDT time to prevent confusion due to time zone crossing. See the AAL448 flight status page for this flight to view local times or setup timezone preferences in your user account.

Time Position Orientation Groundspeed Altitude Reporting Facility
EDT Latitude Longitude Course Direction KTS MPH feet Rate Location/Type
01:06PM 33.9361 -118.4339 59° Northeast 175 201 1,700  Level Los Angeles Center
01:07PM 33.9167 -118.5122 253° West 242 278 3,600 2,280 Climbing Los Angeles Center
01:08PM 34.0870 -118.1494 54° Northeast  Level FlightAware Approximate
01:08PM 33.8744 -118.5636 225° Southwest 269 310 6,500  Level Los Angeles Center
01:09PM 34.1429 -118.0476 59° Northeast  Level FlightAware Approximate
01:09PM 33.8272 -118.4839 125° Southeast 288 331 10,000  Level Los Angeles Center
01:10PM 34.1952 -117.9429 59° Northeast  Level FlightAware Approximate
01:10PM 33.9011 -118.4367 28° Northeast 309 356 11,600  Level Los Angeles Center
01:11PM 34.2556 -117.8554 59° Northeast  Level FlightAware Approximate
01:11PM 33.9758 -118.3603 40° Northeast 363 418 14,200  Level Los Angeles Center
01:12PM 34.0347 -118.2525 57° Northeast 381 438 17,100 2,580 Climbing Los Angeles Center
01:13PM 34.0989 -118.1414 55° Northeast 395 455 19,600 2,160 Climbing Los Angeles Center
01:14PM 34.1661 -118.0225 56° Northeast 417 480 21,600 1,860 Climbing Los Angeles Center
01:15PM 34.2372 -117.8953 56° Northeast 444 511 23,500 1,980 Climbing Los Angeles Center
01:16PM 34.3264 -117.7353 56° Northeast 471 542 25,800 1,680 Climbing Los Angeles Center
01:17PM 34.4058 -117.5933 56° Northeast 487 560 27,000 540 Climbing Los Angeles Center
01:18PM 34.4831 -117.4514 57° Northeast 506 582 27,000  Level Los Angeles Center
01:19PM 34.5606 -117.3114 56° Northeast 506 582 27,000  Level Los Angeles Center
01:20PM 34.6406 -117.1747 55° Northeast 502 578 27,000  Level Los Angeles Center
01:21PM 34.7233 -117.0392 53° Northeast 503 579 27,000 -300 Level Los Angeles Center
01:22PM 34.8203 -116.8767 54° Northeast 502 578 26,400 -780 Descending Los Angeles Center
01:23PM 34.8950 -116.7511 54° Northeast 475 547 25,400 -960 Descending Los Angeles Center
01:24PM 34.9656 -116.6303 55° Northeast 449 517 24,400 -720 Descending Los Angeles Center
01:25PM 35.0383 -116.5103 53° Northeast 444 511 24,000 -240 Descending Los Angeles Center
01:26PM 35.1092 -116.3911 54° Northeast 439 505 24,000 -840 Level Los Angeles Center
01:27PM 35.2106 -116.2656 45° Northeast 434 499 22,300 -1,800 Descending Los Angeles Center
01:29PM 35.2956 -116.1581 46° Northeast 438 504 20,300 -1,800 Descending Los Angeles Center
01:30PM 35.3769 -116.0539 46° Northeast 429 494 18,700 -1,560 Descending Los Angeles Center
01:31PM 35.4575 -115.9522 46° Northeast 421 484 17,100 -1,380 Descending Los Angeles Center
01:32PM 35.5336 -115.8533 47° Northeast 411 473 15,700 -1,500 Descending Los Angeles Center
01:32PM 35.5869 -115.7933 42° Northeast 350 403 14,600 -1,860 Descending Los Angeles Center
01:33PM 35.6156 -115.7550 47° Northeast 336 387 14,100 -1,140 Descending Los Angeles Center
01:34PM 35.6658 -115.6886 47° Northeast 318 366 13,100 -840 Descending Los Angeles Center
01:34PM 35.6850 -115.6672 42° Northeast 327 376 13,100 -120 Level Los Angeles Center
01:35PM 35.7289 -115.6103 46° Northeast 305 351 13,000 -120 Descending Los Angeles Center
01:35PM 35.7486 -115.5858 45° Northeast 312 359 13,000  Level Los Angeles Center
01:36PM 35.8031 -115.5731 11° North 301 346 13,000  Level Los Angeles Center
01:36PM 35.8300 -115.5703 North 302 348 13,000  Level Los Angeles Center
01:37PM 35.8839 -115.5683 North 274 315 13,000  Level Los Angeles Center
01:37PM 35.8958 -115.5664 North 284 327 13,000 -420 Level Los Angeles Center
01:38PM 35.9567 -115.5658 360° North 257 296 12,600 -1,020 Descending Los Angeles Center
01:38PM 35.9831 -115.5614 North 257 296 12,000 -1,500 Descending Los Angeles Center
01:39PM 36.0114 -115.5189 50° Northeast 257 296 11,100 -1,020 Descending Los Angeles Center
01:39PM 36.0142 -115.4864 84° East 250 288 11,000 -120 Descending Los Angeles Center
01:40PM 36.0217 -115.4358 80° East 240 276 11,000 60 Level Los Angeles Center
01:40PM 36.0264 -115.4053 79° East 243 280 11,100 -300 Climbing Los Angeles Center
01:41PM 36.0289 -115.3486 87° East 248 285 10,700 -720 Descending Los Angeles Center
01:41PM 36.0264 -115.3197 96° East 249 287 10,400 -900 Descending Los Angeles Center
01:42PM 36.0211 -115.2633 97° East 250 288 9,800 -1,020 Descending Los Angeles Center
01:42PM 36.0206 -115.2347 91° East 250 288 9,400 -1,020 Descending Los Angeles Center
01:43PM 36.0156 -115.1775 96° East 244 281 8,800 -780 Descending Los Angeles Center
01:43PM 36.0139 -115.1517 95° East 246 283 8,600 -720 Descending Los Angeles Center
01:44PM 36.0108 -115.0967 94° East 240 276 8,100 -600 Descending Los Angeles Center
01:44PM 36.0089 -115.0708 95° East 240 276 8,000 -660 Descending Los Angeles Center
01:45PM 36.0067 -115.0183 93° East 196 226 7,400 -960 Descending Los Angeles Center
01:45PM 36.0053 -114.9892 93° East 211 243 7,000 -960 Descending Los Angeles Center